Saint Germain, WI

6:33 AM CDT on September 29, 2016 (GMT -0500)
Timbergate | | Change Station

Elev 1654 ft 45.91 °N, 89.49 °W | Updated 48 seconds ago

Overcast
Overcast
47.7 °F
Feels Like 48 °F
N
2.0
Wind Variable Wind from NNE

Today
High -- | Low -- °F
--% Chance of Precip.
Yesterday
High -- | Low -- °F
Precip. -- in
Pressure 30.42 in
Visibility 7.0 miles
Clouds Overcast 200 ft
Windchill 48 °F
Dew Point 47 °F
Humidity 98%
Rainfall 0.00 in
Snow Depth Not available.
6:54 AM 6:40 PM
Waning Crescent, 2% visible
METAR KEGV 291115Z AUTO 03006KT 7SM OVC002 09/09 A3042 RMK AO2 T00880088
Pressure 30.42 in
Visibility 7.0 miles
Clouds Overcast 200 ft
Windchill 48 °F
Dew Point 47 °F
Humidity 98%
Rainfall 0.00 in
Snow Depth Not available.
6:54 AM 6:40 PM
Waning Crescent, 2% visible
METAR KEGV 291115Z AUTO 03006KT 7SM OVC002 09/09 A3042 RMK AO2 T00880088

10-Day Weather Forecast

Almanac

Astronomy

Sep. 29, 2016 Rise Set
Actual Time
Civil Twilight
Nautical Twilight
Astronomical Twilight
Moon
Length of Visible Light
Length of Day
Tomorrow will be .
, % of the Moon is Illuminated

Today's Extremes

State Highs State Lows

Community

WunderPhotos

Upload Photos

1,942,463 photos uploaded!

WunderBlog® & News

Nearby

Air Quality

  Air Quality AQ Index Pollutant
Not available.

Snow Depth

Station Depth Elevation

Earthquake Activity

City Distance Mag. Time & Date
Minimum magnitude displayed is 2.5.

Coastal Water Temperatures

Place Temperature

Stations

Nearby Weather Stations

Station Location Temp. Windchill Dew Point Humidity Wind Precip. Elev Updated Type
                   

Watches & Warnings

There are currently no watches in effect.